createdAt,value
2022-11-16T00:01:40.035Z,33.97
2022-11-16T00:04:11.970Z,34.85
2022-11-16T00:09:23.860Z,36.70
2022-11-16T00:11:54.822Z,36.53
2022-11-16T00:14:25.730Z,32.10
2022-11-16T00:16:53.786Z,35.95
2022-11-16T00:19:22.109Z,35.88
2022-11-16T00:21:50.879Z,39.25
2022-11-16T00:24:20.548Z,36.25
2022-11-16T00:26:48.788Z,35.35
2022-11-16T00:29:22.316Z,42.80
2022-11-16T00:31:51.483Z,36.55
2022-11-16T00:34:20.266Z,33.15
2022-11-16T00:36:48.856Z,36.00
2022-11-16T00:39:18.990Z,36.47
2022-11-16T00:41:48.264Z,33.53
2022-11-16T00:44:16.558Z,37.47
2022-11-16T00:46:44.887Z,36.60
2022-11-16T00:49:13.444Z,41.58
2022-11-16T00:51:41.806Z,37.10
2022-11-16T00:54:09.901Z,36.40
2022-11-16T00:56:38.438Z,33.20
2022-11-16T00:59:07.539Z,35.90
2022-11-16T01:01:35.428Z,35.33
2022-11-16T01:04:04.446Z,36.80
2022-11-16T01:06:32.493Z,39.92
2022-11-16T01:09:01.457Z,38.63
2022-11-16T01:11:48.045Z,36.67
2022-11-16T01:14:16.111Z,37.50
2022-11-16T01:16:49.532Z,36.83
2022-11-16T01:19:17.224Z,40.50
2022-11-16T01:21:49.411Z,41.22
2022-11-16T01:24:17.420Z,41.63
2022-11-16T01:26:45.529Z,37.63
2022-11-16T01:29:13.531Z,40.55
2022-11-16T01:31:42.530Z,38.42
2022-11-16T01:34:10.935Z,35.70
2022-11-16T01:36:38.716Z,35.88
2022-11-16T01:39:06.461Z,34.85
2022-11-16T01:41:35.140Z,44.50
2022-11-16T01:44:06.994Z,38.22
2022-11-16T01:46:35.831Z,40.03
2022-11-16T01:49:10.708Z,36.95
2022-11-16T01:51:41.479Z,36.58
2022-11-16T01:54:12.666Z,36.70
2022-11-16T01:56:47.289Z,36.70
2022-11-16T02:02:05.103Z,38.55
2022-11-16T02:04:33.820Z,38.58
2022-11-16T02:07:20.710Z,53.87
2022-11-16T02:10:13.434Z,49.83
2022-11-16T02:13:26.207Z,41.80
2022-11-16T02:16:06.273Z,42.08
2022-11-16T02:18:43.178Z,40.63
2022-11-16T02:21:31.058Z,40.33
2022-11-16T02:24:24.730Z,41.53
2022-11-16T02:27:34.404Z,41.65
2022-11-16T02:30:05.197Z,38.28
2022-11-16T02:33:04.833Z,40.95
2022-11-16T02:35:40.461Z,40.53
2022-11-16T02:38:14.147Z,37.20
2022-11-16T02:40:48.597Z,37.83
2022-11-16T02:43:30.963Z,43.42
2022-11-16T02:46:03.558Z,40.97
2022-11-16T02:48:37.017Z,40.03
2022-11-16T02:51:07.138Z,41.05
2022-11-16T02:54:04.006Z,43.20
2022-11-16T02:56:47.213Z,40.10
2022-11-16T02:59:17.789Z,42.85
2022-11-16T03:02:25.571Z,42.83
2022-11-16T03:05:04.924Z,41.70
2022-11-16T03:07:39.879Z,41.55
2022-11-16T03:10:08.856Z,46.35
2022-11-16T03:12:40.938Z,45.17
2022-11-16T03:15:11.868Z,43.67
2022-11-16T03:17:46.144Z,44.20
2022-11-16T03:20:26.121Z,49.70
2022-11-16T03:23:01.266Z,45.28
2022-11-16T03:25:37.171Z,50.00
2022-11-16T03:28:15.756Z,51.63
2022-11-16T03:30:51.065Z,43.63
2022-11-16T03:33:22.336Z,50.38
2022-11-16T03:36:06.668Z,51.67
2022-11-16T03:38:37.980Z,61.53
2022-11-16T03:41:09.747Z,52.80
2022-11-16T03:43:40.975Z,58.87
2022-11-16T03:46:09.077Z,59.22
2022-11-16T03:48:39.530Z,62.42
2022-11-16T03:51:10.715Z,65.25
2022-11-16T03:53:39.249Z,60.95
2022-11-16T03:56:11.005Z,74.47
2022-11-16T03:58:39.796Z,77.45
2022-11-16T04:01:27.605Z,74.10
2022-11-16T04:03:56.293Z,74.95
2022-11-16T04:06:43.219Z,77.00
2022-11-16T04:09:30.031Z,87.20
2022-11-16T04:12:30.297Z,72.00
2022-11-16T04:15:16.990Z,90.45
2022-11-16T04:18:03.286Z,97.57
2022-11-16T04:20:49.700Z,75.60
2022-11-16T04:23:38.162Z,79.90
2022-11-16T04:26:08.149Z,74.43
2022-11-16T04:28:37.449Z,80.12
2022-11-16T04:31:45.149Z,70.78
2022-11-16T04:34:51.962Z,92.40
2022-11-16T04:37:48.798Z,81.30
2022-11-16T04:40:36.845Z,96.07
2022-11-16T04:43:24.439Z,106.30
2022-11-16T04:46:14.653Z,79.78
2022-11-16T04:48:43.660Z,75.37
2022-11-16T04:51:12.509Z,107.60
2022-11-16T04:54:16.394Z,80.62
2022-11-16T04:56:48.151Z,73.53
2022-11-16T04:59:35.878Z,78.97
2022-11-16T05:02:10.288Z,71.15
2022-11-16T05:04:41.619Z,93.62
2022-11-16T05:07:12.817Z,77.72
2022-11-16T05:10:10.420Z,120.25
2022-11-16T05:12:38.897Z,105.12
2022-11-16T05:15:07.535Z,110.90
2022-11-16T05:17:35.790Z,83.55
2022-11-16T05:20:23.483Z,114.40
2022-11-16T05:22:56.510Z,87.40
2022-11-16T05:25:25.111Z,74.55
2022-11-16T05:27:53.914Z,76.85
2022-11-16T05:30:21.771Z,77.60
2022-11-16T05:32:49.818Z,75.18
2022-11-16T05:35:18.752Z,58.87
2022-11-16T05:37:47.304Z,66.32
2022-11-16T05:40:16.065Z,53.03
2022-11-16T05:42:44.376Z,53.75
2022-11-16T05:45:14.913Z,60.30
2022-11-16T05:47:46.524Z,52.85
2022-11-16T05:50:36.339Z,48.78
2022-11-16T05:53:09.675Z,55.40
2022-11-16T05:55:57.286Z,56.35
2022-11-16T05:58:25.756Z,54.85
2022-11-16T06:00:53.967Z,55.12
2022-11-16T06:03:22.757Z,56.55
2022-11-16T06:05:53.275Z,61.58
2022-11-16T06:08:21.607Z,62.78
2022-11-16T06:10:51.102Z,61.03
2022-11-16T06:13:19.125Z,59.88
2022-11-16T06:15:52.570Z,58.42
2022-11-16T06:18:21.955Z,57.45
2022-11-16T06:20:50.280Z,62.17
2022-11-16T06:24:02.738Z,58.08
2022-11-16T06:27:18.520Z,56.13
2022-11-16T06:30:13.271Z,60.80
2022-11-16T06:32:40.946Z,62.42
2022-11-16T06:35:30.026Z,80.87
2022-11-16T06:38:18.680Z,65.80
2022-11-16T06:40:52.817Z,54.85
2022-11-16T06:43:21.275Z,55.97
2022-11-16T06:45:55.394Z,57.30
2022-11-16T06:48:23.938Z,60.28
2022-11-16T06:50:52.869Z,60.67
2022-11-16T06:53:44.689Z,100.15
2022-11-16T06:56:15.998Z,80.50
2022-11-16T06:59:04.784Z,75.90
2022-11-16T07:01:33.141Z,59.90
2022-11-16T07:04:11.910Z,70.28
2022-11-16T07:06:43.589Z,67.62
2022-11-16T07:09:15.476Z,84.65
2022-11-16T07:11:44.568Z,63.95
2022-11-16T07:14:14.025Z,62.90
2022-11-16T07:16:42.374Z,67.10
2022-11-16T07:19:11.235Z,65.82
2022-11-16T07:21:39.938Z,57.55
2022-11-16T07:24:08.145Z,57.83
2022-11-16T07:26:36.181Z,55.58
2022-11-16T07:29:04.312Z,62.97
2022-11-16T07:31:33.365Z,64.20
2022-11-16T07:34:11.619Z,65.43
2022-11-16T07:36:39.975Z,59.70
2022-11-16T07:39:10.290Z,56.35
2022-11-16T07:41:38.874Z,62.38
2022-11-16T07:44:11.912Z,62.08
2022-11-16T07:46:48.670Z,62.10
2022-11-16T07:49:18.949Z,106.40
2022-11-16T07:51:48.535Z,63.67
2022-11-16T07:54:16.942Z,83.32
2022-11-16T07:56:45.355Z,66.37
2022-11-16T07:59:13.704Z,59.95
2022-11-16T08:01:41.925Z,62.03
2022-11-16T08:04:11.081Z,62.85
2022-11-16T08:06:39.845Z,59.50
2022-11-16T08:09:27.880Z,63.13
2022-11-16T08:11:56.032Z,58.25
2022-11-16T08:14:44.143Z,64.93
2022-11-16T08:17:13.063Z,94.45
2022-11-16T08:20:00.674Z,80.68
2022-11-16T08:22:30.255Z,73.20
2022-11-16T08:24:58.502Z,60.08
2022-11-16T08:27:26.566Z,55.08
2022-11-16T08:29:56.173Z,56.03
2022-11-16T08:32:23.934Z,52.78
2022-11-16T08:34:53.410Z,54.92
2022-11-16T08:37:22.888Z,64.30
2022-11-16T08:39:50.850Z,73.32
2022-11-16T08:42:21.490Z,55.85
2022-11-16T08:44:49.953Z,59.33
2022-11-16T08:47:18.503Z,59.35
2022-11-16T08:49:49.730Z,58.92
2022-11-16T08:52:18.519Z,58.60
2022-11-16T08:54:47.395Z,61.37
2022-11-16T08:57:16.473Z,68.87
2022-11-16T08:59:44.923Z,67.12
2022-11-16T09:02:12.917Z,67.72
2022-11-16T09:04:40.627Z,56.08
2022-11-16T09:07:09.861Z,59.10
2022-11-16T09:09:37.716Z,53.00
2022-11-16T09:12:05.597Z,56.55
2022-11-16T09:14:33.512Z,53.60
2022-11-16T09:17:01.218Z,53.35
2022-11-16T09:19:28.922Z,56.55
2022-11-16T09:21:56.971Z,53.25
2022-11-16T09:24:24.555Z,51.22
2022-11-16T09:26:52.226Z,46.20
2022-11-16T09:29:20.934Z,52.55
2022-11-16T09:31:48.917Z,50.33
2022-11-16T09:34:17.177Z,46.90
2022-11-16T09:36:45.294Z,52.95
2022-11-16T09:39:30.070Z,50.95
2022-11-16T09:42:23.756Z,46.97
2022-11-16T09:45:04.802Z,43.72
2022-11-16T09:47:44.730Z,59.22
2022-11-16T09:50:27.851Z,50.85
2022-11-16T09:53:04.602Z,52.47
2022-11-16T09:55:52.074Z,44.10
2022-11-16T09:58:31.979Z,47.35
2022-11-16T10:01:06.582Z,44.15
2022-11-16T10:03:40.919Z,43.65
2022-11-16T10:06:19.953Z,45.53
2022-11-16T10:08:51.672Z,44.70
2022-11-16T10:11:37.871Z,47.60
2022-11-16T10:14:18.226Z,61.80
2022-11-16T10:16:51.838Z,47.38
2022-11-16T10:19:35.205Z,41.45
2022-11-16T10:22:40.809Z,44.45
2022-11-16T10:25:26.525Z,39.95
2022-11-16T10:28:15.971Z,45.55
2022-11-16T10:31:00.335Z,39.28
2022-11-16T10:34:16.046Z,42.90
2022-11-16T10:36:47.645Z,41.28
2022-11-16T10:39:19.761Z,43.65
2022-11-16T10:41:51.071Z,47.45
2022-11-16T10:44:21.680Z,44.63
2022-11-16T10:47:37.066Z,43.03
2022-11-16T10:50:33.450Z,40.70
2022-11-16T10:53:39.514Z,43.30
2022-11-16T10:56:28.417Z,42.78
2022-11-16T10:59:09.171Z,44.05
2022-11-16T11:01:41.308Z,45.55
2022-11-16T11:04:24.824Z,47.28
2022-11-16T11:06:55.435Z,43.67
2022-11-16T11:09:36.214Z,43.25
2022-11-16T11:12:37.806Z,39.85
2022-11-16T11:15:11.889Z,44.47
2022-11-16T11:17:42.263Z,42.58
2022-11-16T11:20:17.090Z,47.00
2022-11-16T11:23:02.647Z,44.75
2022-11-16T11:25:36.856Z,46.78
2022-11-16T11:28:20.240Z,48.03
2022-11-16T11:31:56.270Z,48.60
2022-11-16T11:34:50.329Z,47.60
2022-11-16T11:37:39.653Z,47.15
2022-11-16T11:40:28.925Z,52.10
2022-11-16T11:43:25.382Z,48.50
2022-11-16T11:46:30.610Z,49.08
2022-11-16T11:49:36.154Z,45.88
2022-11-16T11:53:13.322Z,51.15
2022-11-16T11:56:01.760Z,52.92
2022-11-16T11:58:33.641Z,46.63
2022-11-16T12:01:01.865Z,43.90
2022-11-16T12:03:57.964Z,51.97
2022-11-16T12:06:38.754Z,46.75
2022-11-16T12:09:18.066Z,39.90
2022-11-16T12:12:26.188Z,40.38
2022-11-16T12:15:29.187Z,49.15
2022-11-16T12:18:20.782Z,48.92
2022-11-16T12:21:22.576Z,38.80
2022-11-16T12:23:56.718Z,44.40
2022-11-16T12:26:52.741Z,49.35
2022-11-16T12:29:40.180Z,47.03
2022-11-16T12:32:33.397Z,43.30
2022-11-16T12:35:38.923Z,42.65
2022-11-16T12:38:29.793Z,48.30
2022-11-16T12:41:57.255Z,43.05
2022-11-16T12:44:55.896Z,51.05
2022-11-16T12:47:47.122Z,52.15
2022-11-16T12:50:33.836Z,42.58
2022-11-16T12:53:27.651Z,43.17
2022-11-16T12:56:24.301Z,49.33
2022-11-16T12:59:16.540Z,48.35
2022-11-16T13:02:00.807Z,41.22
2022-11-16T13:04:35.434Z,45.55
2022-11-16T13:07:13.036Z,43.30
2022-11-16T13:09:48.873Z,41.50
2022-11-16T13:12:23.481Z,43.33
2022-11-16T13:14:55.040Z,44.67
2022-11-16T13:17:28.145Z,46.85
2022-11-16T13:20:17.556Z,43.50
2022-11-16T13:23:00.413Z,53.85
2022-11-16T13:25:33.189Z,47.13
2022-11-16T13:28:20.540Z,48.08
2022-11-16T13:31:13.084Z,50.83
2022-11-16T13:33:50.983Z,48.38
2022-11-16T13:36:39.309Z,50.35
2022-11-16T13:39:08.594Z,45.50
2022-11-16T13:41:38.646Z,46.90
2022-11-16T13:44:14.497Z,49.00
2022-11-16T13:46:55.689Z,43.25
2022-11-16T13:49:29.950Z,44.10
2022-11-16T13:52:17.204Z,44.45
2022-11-16T13:54:53.236Z,45.08
2022-11-16T13:57:26.471Z,43.05
2022-11-16T14:00:21.197Z,44.60
2022-11-16T14:02:49.225Z,50.65
2022-11-16T14:05:41.627Z,45.60
2022-11-16T14:08:24.966Z,44.20
2022-11-16T14:10:52.586Z,44.20
2022-11-16T14:13:53.477Z,44.25
2022-11-16T14:16:21.736Z,42.80
2022-11-16T14:18:52.198Z,39.45
2022-11-16T14:21:19.975Z,45.47
2022-11-16T14:23:47.538Z,48.72
2022-11-16T14:26:21.804Z,46.33
2022-11-16T14:29:08.775Z,45.47
2022-11-16T14:31:55.023Z,44.00
2022-11-16T14:34:48.217Z,45.65
2022-11-16T14:37:21.822Z,43.35
2022-11-16T14:39:51.375Z,45.38
2022-11-16T14:42:38.114Z,42.28
2022-11-16T14:45:28.406Z,49.63
2022-11-16T14:48:02.960Z,44.03
2022-11-16T14:50:36.709Z,45.00
2022-11-16T14:53:13.145Z,50.03
2022-11-16T14:55:46.276Z,60.47
2022-11-16T14:58:14.171Z,60.97
2022-11-16T15:00:42.565Z,65.50
2022-11-16T15:03:12.356Z,69.87
2022-11-16T15:05:40.441Z,69.40
2022-11-16T15:08:19.537Z,62.38
2022-11-16T15:10:52.329Z,65.10
2022-11-16T15:13:45.432Z,58.38
2022-11-16T15:16:20.071Z,62.78
2022-11-16T15:19:02.368Z,54.75
2022-11-16T15:21:30.378Z,51.63
2022-11-16T15:26:46.204Z,57.13
2022-11-16T15:29:17.367Z,52.88
2022-11-16T15:31:48.401Z,58.25
2022-11-16T15:34:18.863Z,52.92
2022-11-16T15:36:48.677Z,53.10
2022-11-16T15:39:24.772Z,52.75
2022-11-16T15:41:52.898Z,53.17
2022-11-16T15:44:23.621Z,46.28
2022-11-16T15:46:55.398Z,48.28
2022-11-16T15:49:26.093Z,54.22
2022-11-16T15:51:53.856Z,52.07
2022-11-16T15:54:25.064Z,53.65
2022-11-16T15:56:56.805Z,54.78
2022-11-16T15:59:32.550Z,57.40
2022-11-16T16:02:00.753Z,54.58
2022-11-16T16:04:29.127Z,54.40
2022-11-16T16:07:12.972Z,61.08
2022-11-16T16:09:41.171Z,57.97
2022-11-16T16:12:19.852Z,58.55
2022-11-16T16:14:49.439Z,63.80
2022-11-16T16:17:29.621Z,60.72
2022-11-16T16:22:37.872Z,65.72
2022-11-16T16:25:26.155Z,68.22
2022-11-16T16:27:54.219Z,67.62
2022-11-16T16:30:22.441Z,75.32
2022-11-16T16:32:51.194Z,76.62
2022-11-16T16:35:22.665Z,77.53
2022-11-16T16:37:56.799Z,61.03
2022-11-16T16:40:25.238Z,52.88
2022-11-16T16:42:56.089Z,52.40
2022-11-16T16:45:35.196Z,171.93
2022-11-16T16:48:03.880Z,51.72
2022-11-16T16:50:31.853Z,56.50
2022-11-16T16:53:00.201Z,88.10
2022-11-16T16:58:38.043Z,44.58
2022-11-16T17:02:02.141Z,42.85
2022-11-16T17:04:39.173Z,77.85
2022-11-16T17:07:28.488Z,43.50
2022-11-16T17:10:17.435Z,42.38
2022-11-16T17:13:25.553Z,43.33
2022-11-16T17:16:13.446Z,43.47
2022-11-16T17:19:34.150Z,45.42
2022-11-16T17:22:47.375Z,42.47
2022-11-16T17:25:44.703Z,40.65
2022-11-16T17:32:30.354Z,42.95
2022-11-16T17:35:18.578Z,39.85
2022-11-16T17:37:46.713Z,45.05
2022-11-16T17:40:16.161Z,44.47
2022-11-16T17:42:48.115Z,40.67
2022-11-16T17:46:05.773Z,43.13
2022-11-16T17:49:22.512Z,41.53
2022-11-16T17:52:10.117Z,42.30
2022-11-16T17:54:58.889Z,43.13
2022-11-16T17:57:46.496Z,47.08
2022-11-16T18:00:54.617Z,40.42
2022-11-16T18:04:22.953Z,41.97
2022-11-16T18:07:01.214Z,44.50
2022-11-16T18:09:30.029Z,43.22
2022-11-16T18:12:02.211Z,45.95
2022-11-16T18:14:35.767Z,42.85
2022-11-16T18:17:23.768Z,46.67
2022-11-16T18:19:56.151Z,40.45
2022-11-16T18:22:24.479Z,41.85
2022-11-16T18:25:12.882Z,39.88
2022-11-16T18:28:01.273Z,38.10
2022-11-16T18:30:30.372Z,39.78
2022-11-16T18:32:58.714Z,39.97
2022-11-16T18:35:26.554Z,40.12
2022-11-16T18:37:55.082Z,40.00
2022-11-16T18:40:23.966Z,37.63
2022-11-16T18:42:51.990Z,37.88
2022-11-16T18:45:20.262Z,30.70
2022-11-16T18:47:48.158Z,32.10
2022-11-16T18:50:20.226Z,28.35
2022-11-16T18:53:11.425Z,33.45
2022-11-16T18:55:59.230Z,26.58
2022-11-16T18:58:49.824Z,26.08
2022-11-16T19:01:36.517Z,27.33
2022-11-16T19:04:07.682Z,23.92
2022-11-16T19:06:37.285Z,24.33
2022-11-16T19:09:09.683Z,22.75
2022-11-16T19:11:57.232Z,25.42
2022-11-16T19:14:45.125Z,24.12
2022-11-16T19:17:48.178Z,25.27
2022-11-16T19:20:24.728Z,22.15
2022-11-16T19:22:53.126Z,24.10
2022-11-16T19:25:22.561Z,21.05
2022-11-16T19:28:10.427Z,21.37
2022-11-16T19:30:58.115Z,20.83
2022-11-16T19:33:26.469Z,21.40
2022-11-16T19:36:17.017Z,22.35
2022-11-16T19:38:47.287Z,23.12
2022-11-16T19:41:17.361Z,22.45
2022-11-16T19:43:45.656Z,22.70
2022-11-16T19:46:20.537Z,20.98
2022-11-16T19:48:49.905Z,23.50
2022-11-16T19:51:29.693Z,25.88
2022-11-16T19:54:02.367Z,20.95
2022-11-16T19:56:30.629Z,20.95
2022-11-16T19:58:58.932Z,18.15
2022-11-16T20:01:29.410Z,18.67
2022-11-16T20:04:00.413Z,19.12
2022-11-16T20:06:34.170Z,18.55
2022-11-16T20:09:08.713Z,19.02
2022-11-16T20:11:41.324Z,20.37
2022-11-16T20:14:11.885Z,18.75
2022-11-16T20:16:46.586Z,19.10
2022-11-16T20:19:15.798Z,22.27
2022-11-16T20:21:44.765Z,21.75
2022-11-16T20:24:15.174Z,20.08
2022-11-16T20:26:48.669Z,20.95
2022-11-16T20:29:18.744Z,18.40
2022-11-16T20:31:47.415Z,19.73
2022-11-16T20:34:18.580Z,19.87
2022-11-16T20:36:48.155Z,19.70
2022-11-16T20:39:29.599Z,21.20
2022-11-16T20:41:59.079Z,19.02
2022-11-16T20:44:27.326Z,17.20
2022-11-16T20:46:55.630Z,19.50
2022-11-16T20:49:24.053Z,16.30
2022-11-16T20:51:52.289Z,18.58
2022-11-16T20:54:20.102Z,17.20
2022-11-16T20:56:49.741Z,16.65
2022-11-16T20:59:17.993Z,17.00
2022-11-16T21:01:48.813Z,18.40
2022-11-16T21:06:45.011Z,21.65
2022-11-16T21:09:15.628Z,19.60
2022-11-16T21:12:02.500Z,19.33
2022-11-16T21:14:30.483Z,34.42
2022-11-16T21:16:58.420Z,27.10
2022-11-16T21:19:26.420Z,18.15
2022-11-16T21:21:54.159Z,17.90
2022-11-16T21:24:24.771Z,15.35
2022-11-16T21:26:52.549Z,16.63
2022-11-16T21:29:25.909Z,17.77
2022-11-16T21:31:53.938Z,14.30
2022-11-16T21:34:21.532Z,15.77
2022-11-16T21:36:49.263Z,15.13
2022-11-16T21:39:17.669Z,18.45
2022-11-16T21:41:45.346Z,17.48
2022-11-16T21:44:12.952Z,14.50
2022-11-16T21:46:41.147Z,14.90
2022-11-16T21:49:09.475Z,19.05
2022-11-16T21:51:37.090Z,14.65
2022-11-16T21:54:05.121Z,17.50
2022-11-16T21:56:32.786Z,15.15
2022-11-16T21:59:00.568Z,16.15
2022-11-16T22:01:48.588Z,16.10
2022-11-16T22:04:35.478Z,15.23
2022-11-16T22:07:21.858Z,15.18
2022-11-16T22:09:49.871Z,17.25
2022-11-16T22:12:17.479Z,14.55
2022-11-16T22:14:45.127Z,14.98
2022-11-16T22:17:13.233Z,15.88
2022-11-16T22:19:40.914Z,15.40
2022-11-16T22:22:08.600Z,14.95
2022-11-16T22:24:36.641Z,15.93
2022-11-16T22:27:04.367Z,14.75
2022-11-16T22:29:32.165Z,16.67
2022-11-16T22:32:00.346Z,13.85
2022-11-16T22:34:28.030Z,15.70
2022-11-16T22:36:55.628Z,18.70
2022-11-16T22:39:23.655Z,15.25
2022-11-16T22:41:51.620Z,16.52
2022-11-16T22:44:19.459Z,18.70
2022-11-16T22:46:49.493Z,18.90
2022-11-16T22:49:17.523Z,19.02
2022-11-16T22:51:46.007Z,19.90
2022-11-16T22:54:15.683Z,22.33
2022-11-16T22:56:43.938Z,20.92
2022-11-16T22:59:11.527Z,17.27
2022-11-16T23:01:39.478Z,15.52
2022-11-16T23:04:07.134Z,17.10
2022-11-16T23:06:34.782Z,17.20
2022-11-16T23:09:02.941Z,15.45
2022-11-16T23:11:49.184Z,17.52
2022-11-16T23:14:36.138Z,14.55
2022-11-16T23:17:04.454Z,15.02
2022-11-16T23:19:52.859Z,14.27
2022-11-16T23:22:40.624Z,15.57
2022-11-16T23:25:30.515Z,14.35
2022-11-16T23:27:58.155Z,15.77
2022-11-16T23:30:26.711Z,15.65
2022-11-16T23:32:54.727Z,18.23
2022-11-16T23:35:23.300Z,15.68
2022-11-16T23:37:57.110Z,16.85
2022-11-16T23:40:30.376Z,17.15
2022-11-16T23:43:18.574Z,19.02
2022-11-16T23:45:46.488Z,16.70
2022-11-16T23:48:16.655Z,18.75
2022-11-16T23:50:45.932Z,25.23
2022-11-16T23:53:14.465Z,26.20
2022-11-16T23:55:42.363Z,23.27
2022-11-16T23:58:13.698Z,19.75
